createdAt,value
2022-08-09T00:01:54.990Z,3.60
2022-08-09T00:04:35.029Z,3.00
2022-08-09T00:07:10.509Z,2.90
2022-08-09T00:09:40.530Z,3.00
2022-08-09T00:12:22.356Z,3.30
2022-08-09T00:14:56.726Z,3.00
2022-08-09T00:18:04.645Z,3.30
2022-08-09T00:20:16.509Z,4.30
2022-08-09T00:22:48.274Z,5.20
2022-08-09T00:25:23.560Z,5.00
2022-08-09T00:28:04.107Z,4.40
2022-08-09T00:30:34.248Z,3.70
2022-08-09T00:33:03.789Z,3.90
2022-08-09T00:35:43.118Z,3.90
2022-08-09T00:38:13.119Z,4.00
2022-08-09T00:40:53.179Z,4.30
2022-08-09T00:44:14.428Z,3.90
2022-08-09T00:46:28.351Z,3.40
2022-08-09T00:49:04.021Z,3.10
2022-08-09T00:51:54.148Z,3.60
2022-08-09T00:54:35.261Z,2.90
2022-08-09T00:57:10.490Z,3.20
2022-08-09T00:59:46.702Z,3.20
2022-08-09T01:02:21.703Z,3.50
2022-08-09T01:04:51.330Z,3.50
2022-08-09T01:07:20.716Z,4.30
2022-08-09T01:10:07.747Z,3.60
2022-08-09T01:12:38.523Z,3.60
2022-08-09T01:15:16.620Z,3.30
2022-08-09T01:17:47.472Z,3.50
2022-08-09T01:20:16.919Z,3.30
2022-08-09T01:22:48.229Z,3.50
2022-08-09T01:25:21.941Z,4.30
2022-08-09T01:27:51.501Z,3.40
2022-08-09T01:30:35.296Z,3.60
2022-08-09T01:33:06.096Z,3.80
2022-08-09T01:35:39.541Z,3.20
2022-08-09T01:38:15.493Z,3.00
2022-08-09T01:40:53.119Z,3.80
2022-08-09T01:43:50.974Z,3.00
2022-08-09T01:46:25.251Z,3.20
2022-08-09T01:48:56.807Z,3.30
2022-08-09T01:51:26.337Z,3.40
2022-08-09T01:53:57.848Z,3.80
2022-08-09T01:56:27.667Z,4.50
2022-08-09T01:58:57.007Z,4.40
2022-08-09T02:01:58.588Z,4.40
2022-08-09T02:04:15.698Z,4.20
2022-08-09T02:07:03.267Z,3.50
2022-08-09T02:09:41.939Z,3.50
2022-08-09T02:12:13.428Z,3.30
2022-08-09T02:14:51.724Z,3.50
2022-08-09T02:17:59.968Z,3.40
2022-08-09T02:20:10.540Z,4.20
2022-08-09T02:22:40.030Z,3.90
2022-08-09T02:25:09.826Z,4.10
2022-08-09T02:28:00.584Z,4.00
2022-08-09T02:30:34.106Z,3.70
2022-08-09T02:33:03.759Z,3.50
2022-08-09T02:38:29.718Z,3.70
2022-08-09T02:40:59.346Z,4.30
2022-08-09T02:43:28.816Z,4.10
2022-08-09T02:45:58.401Z,4.20
2022-08-09T02:48:31.131Z,4.30
2022-08-09T02:51:01.696Z,3.90
2022-08-09T02:53:32.009Z,3.30
2022-08-09T02:56:03.988Z,3.60
2022-08-09T02:58:36.379Z,3.90
2022-08-09T03:01:08.134Z,3.80
2022-08-09T03:04:17.476Z,3.70
2022-08-09T03:06:29.616Z,8.20
2022-08-09T03:08:58.939Z,6.90
2022-08-09T03:11:30.223Z,4.90
2022-08-09T03:14:18.274Z,4.10
2022-08-09T03:16:48.429Z,4.20
2022-08-09T03:19:59.454Z,4.30
2022-08-09T03:22:12.172Z,3.60
2022-08-09T03:25:06.285Z,3.30
2022-08-09T03:27:47.821Z,3.50
2022-08-09T03:30:28.122Z,3.40
2022-08-09T03:32:58.792Z,3.40
2022-08-09T03:36:11.346Z,3.60
2022-08-09T03:38:28.841Z,4.20
2022-08-09T03:40:59.868Z,4.00
2022-08-09T03:43:31.660Z,4.00
2022-08-09T03:46:13.626Z,4.00
2022-08-09T03:48:51.471Z,3.70
2022-08-09T03:51:56.727Z,3.50
2022-08-09T03:54:11.375Z,3.30
2022-08-09T03:56:41.709Z,3.40
2022-08-09T03:59:17.275Z,3.60
2022-08-09T04:01:56.619Z,3.60
2022-08-09T04:04:32.633Z,3.70
2022-08-09T04:07:08.218Z,4.00
2022-08-09T04:09:41.676Z,4.10
2022-08-09T04:12:30.203Z,4.50
2022-08-09T04:15:11.377Z,3.70
2022-08-09T04:17:42.429Z,4.10
2022-08-09T04:20:13.197Z,4.10
2022-08-09T04:22:44.451Z,4.20
2022-08-09T04:25:14.036Z,4.00
2022-08-09T04:27:46.731Z,4.30
2022-08-09T04:30:20.781Z,3.80
2022-08-09T04:32:52.815Z,4.20
2022-08-09T04:35:23.710Z,5.00
2022-08-09T04:37:53.294Z,4.50
2022-08-09T04:40:36.211Z,4.30
2022-08-09T04:43:06.104Z,4.80
2022-08-09T04:45:53.269Z,4.90
2022-08-09T04:48:33.142Z,3.80
2022-08-09T04:51:03.070Z,4.20
2022-08-09T04:53:32.383Z,4.60
2022-08-09T04:56:03.703Z,4.50
2022-08-09T04:58:33.986Z,4.30
2022-08-09T05:01:03.538Z,4.40
2022-08-09T05:03:42.360Z,5.40
2022-08-09T05:06:25.867Z,5.10
2022-08-09T05:09:00.363Z,4.90
2022-08-09T05:11:35.556Z,4.30
2022-08-09T05:14:05.857Z,3.90
2022-08-09T05:16:43.568Z,4.20
2022-08-09T05:19:25.971Z,4.10
2022-08-09T05:22:01.052Z,4.50
2022-08-09T05:24:30.323Z,4.50
2022-08-09T05:26:59.533Z,4.10
2022-08-09T05:29:31.173Z,3.80
2022-08-09T05:32:01.756Z,3.60
2022-08-09T05:34:32.485Z,3.80
2022-08-09T05:37:05.171Z,3.90
2022-08-09T05:39:43.410Z,4.00
2022-08-09T05:42:21.330Z,4.40
2022-08-09T05:45:05.376Z,4.80
2022-08-09T05:47:34.803Z,3.90
2022-08-09T05:50:25.547Z,4.10
2022-08-09T05:53:04.423Z,4.50
2022-08-09T05:55:33.668Z,4.30
2022-08-09T05:58:02.955Z,4.20
2022-08-09T06:00:36.663Z,4.00
2022-08-09T06:03:10.784Z,4.60
2022-08-09T06:05:58.239Z,4.20
2022-08-09T06:08:29.768Z,4.00
2022-08-09T06:11:00.799Z,4.20
2022-08-09T06:13:34.135Z,4.20
2022-08-09T06:16:04.718Z,4.50
2022-08-09T06:18:34.676Z,4.20
2022-08-09T06:21:04.205Z,4.60
2022-08-09T06:23:58.856Z,4.60
2022-08-09T06:26:28.538Z,4.20
2022-08-09T06:29:01.122Z,4.70
2022-08-09T06:31:39.364Z,5.40
2022-08-09T06:34:26.235Z,4.90
2022-08-09T06:37:00.111Z,4.60
2022-08-09T06:39:48.578Z,4.50
2022-08-09T06:42:24.886Z,4.30
2022-08-09T06:46:04.393Z,4.10
2022-08-09T06:48:00.642Z,4.60
2022-08-09T06:50:31.862Z,4.70
2022-08-09T06:53:03.084Z,4.40
2022-08-09T06:55:33.454Z,4.70
2022-08-09T06:58:04.685Z,4.80
2022-08-09T07:00:54.930Z,5.10
2022-08-09T07:03:28.060Z,4.90
2022-08-09T07:06:04.502Z,4.10
2022-08-09T07:11:07.216Z,4.20
2022-08-09T07:13:45.025Z,4.40
2022-08-09T07:16:41.614Z,3.90
2022-08-09T07:19:15.794Z,4.70
2022-08-09T07:21:57.211Z,4.10
2022-08-09T07:24:32.082Z,4.60
2022-08-09T07:27:02.544Z,4.90
2022-08-09T07:29:37.687Z,4.50
2022-08-09T07:32:07.657Z,4.60
2022-08-09T07:34:36.978Z,4.20
2022-08-09T07:37:06.438Z,4.30
2022-08-09T07:39:46.451Z,4.30
2022-08-09T07:42:16.006Z,4.30
2022-08-09T07:44:50.850Z,4.60
2022-08-09T07:47:39.423Z,4.10
2022-08-09T07:50:12.331Z,4.30
2022-08-09T07:52:43.054Z,3.90
2022-08-09T07:55:13.002Z,4.20
2022-08-09T07:57:48.093Z,4.10
2022-08-09T08:00:20.456Z,4.40
2022-08-09T08:03:08.303Z,4.10
2022-08-09T08:05:58.050Z,4.50
2022-08-09T08:09:00.394Z,4.30
2022-08-09T08:12:11.088Z,4.40
2022-08-09T08:14:07.248Z,4.20
2022-08-09T08:16:39.705Z,3.80
2022-08-09T08:19:20.800Z,4.30
2022-08-09T08:21:53.269Z,4.10
2022-08-09T08:24:22.750Z,4.50
2022-08-09T08:26:56.430Z,4.10
2022-08-09T08:29:27.391Z,4.50
2022-08-09T08:32:04.432Z,3.60
2022-08-09T08:34:36.533Z,3.80
2022-08-09T08:37:06.636Z,3.40
2022-08-09T08:39:47.281Z,3.50
2022-08-09T08:42:16.746Z,3.80
2022-08-09T08:44:46.438Z,4.10
2022-08-09T08:47:17.560Z,3.60
2022-08-09T08:49:49.333Z,3.60
2022-08-09T08:55:08.883Z,2.90
2022-08-09T08:57:38.733Z,3.10
2022-08-09T09:00:16.989Z,2.80
2022-08-09T09:02:52.851Z,2.70
2022-08-09T09:05:57.832Z,2.90
2022-08-09T09:08:29.693Z,3.10
2022-08-09T09:11:01.388Z,3.30
2022-08-09T09:13:41.781Z,3.00
2022-08-09T09:16:29.641Z,2.90
2022-08-09T09:21:50.418Z,2.50
2022-08-09T09:24:20.850Z,2.50
2022-08-09T09:26:51.437Z,2.70
2022-08-09T09:29:20.886Z,3.00
2022-08-09T09:32:06.460Z,2.70
2022-08-09T09:34:44.718Z,2.20
2022-08-09T09:37:14.358Z,2.30
2022-08-09T09:39:57.050Z,2.50
2022-08-09T09:42:30.918Z,2.30
2022-08-09T09:45:00.524Z,1.50
2022-08-09T09:47:30.235Z,2.30
2022-08-09T09:50:14.279Z,1.70
2022-08-09T09:52:53.640Z,1.70
2022-08-09T09:55:32.490Z,1.60
2022-08-09T09:58:17.346Z,1.80
2022-08-09T10:00:54.707Z,1.40
2022-08-09T10:03:25.148Z,1.30
2022-08-09T10:06:03.329Z,1.20
2022-08-09T10:08:42.407Z,1.40
2022-08-09T10:11:38.070Z,1.40
2022-08-09T10:14:02.157Z,1.00
2022-08-09T10:16:56.755Z,1.20
2022-08-09T10:19:20.824Z,1.40
2022-08-09T10:21:52.892Z,1.20
2022-08-09T10:24:25.548Z,1.50
2022-08-09T10:27:17.006Z,1.60
2022-08-09T10:30:48.142Z,1.20
2022-08-09T10:32:50.319Z,1.30
2022-08-09T10:35:20.139Z,1.30
2022-08-09T10:37:51.757Z,1.30
2022-08-09T10:40:33.486Z,1.40
2022-08-09T10:43:08.131Z,1.50
2022-08-09T10:45:49.242Z,1.40
2022-08-09T10:48:30.666Z,1.40
2022-08-09T10:51:13.629Z,1.30
2022-08-09T10:53:46.925Z,1.50
2022-08-09T10:56:24.657Z,1.70
2022-08-09T10:58:55.068Z,1.40
2022-08-09T11:03:15.166Z,1.30
2022-08-09T11:04:19.761Z,1.40
2022-08-09T11:07:00.738Z,1.60
2022-08-09T11:09:33.674Z,1.40
2022-08-09T11:12:07.344Z,1.50
2022-08-09T11:14:38.507Z,1.80
2022-08-09T11:17:07.858Z,1.60
2022-08-09T11:20:10.043Z,1.80
2022-08-09T11:22:26.413Z,1.80
2022-08-09T11:24:56.015Z,2.20
2022-08-09T11:28:03.664Z,1.70
2022-08-09T11:30:32.427Z,1.80
2022-08-09T11:33:03.644Z,1.70
2022-08-09T11:35:35.142Z,1.80
2022-08-09T11:38:19.285Z,2.40
2022-08-09T11:40:53.011Z,2.00
2022-08-09T11:43:24.311Z,2.00
2022-08-09T11:45:54.105Z,1.70
2022-08-09T11:48:27.009Z,1.70
2022-08-09T11:52:53.696Z,1.80
2022-08-09T11:54:01.041Z,1.70
2022-08-09T11:56:42.832Z,2.00
2022-08-09T11:59:17.913Z,2.00
2022-08-09T12:02:16.264Z,1.90
2022-08-09T12:04:37.248Z,1.90
2022-08-09T12:07:07.929Z,2.00
2022-08-09T12:09:38.377Z,1.70
2022-08-09T12:12:12.840Z,1.80
2022-08-09T12:15:08.337Z,1.90
2022-08-09T12:17:44.868Z,2.00
2022-08-09T12:20:21.628Z,2.20
2022-08-09T12:22:52.068Z,2.10
2022-08-09T12:25:36.654Z,2.00
2022-08-09T12:29:09.977Z,2.10
2022-08-09T12:30:58.049Z,1.90
2022-08-09T12:33:51.011Z,1.90
2022-08-09T12:36:31.461Z,2.10
2022-08-09T12:39:04.226Z,2.20
2022-08-09T12:41:39.613Z,2.10
2022-08-09T12:44:10.294Z,2.10
2022-08-09T12:46:49.851Z,2.00
2022-08-09T12:49:20.927Z,2.20
2022-08-09T12:52:00.582Z,3.10
2022-08-09T12:54:31.624Z,1.90
2022-08-09T12:57:01.457Z,1.90
2022-08-09T12:59:40.032Z,2.00
2022-08-09T13:02:20.137Z,2.20
2022-08-09T13:04:50.553Z,2.20
2022-08-09T13:07:28.666Z,2.10
2022-08-09T13:10:10.536Z,2.10
2022-08-09T13:13:10.913Z,2.10
2022-08-09T13:15:30.411Z,1.90
2022-08-09T13:18:05.857Z,2.00
2022-08-09T13:21:03.775Z,2.10
2022-08-09T13:24:07.378Z,1.70
2022-08-09T13:26:17.402Z,2.20
2022-08-09T13:29:01.537Z,2.80
2022-08-09T13:32:20.168Z,2.00
2022-08-09T13:34:20.728Z,2.20
2022-08-09T13:36:50.109Z,2.00
2022-08-09T13:41:51.142Z,2.00
2022-08-09T13:42:12.116Z,2.00
2022-08-09T13:44:42.741Z,1.90
2022-08-09T13:47:33.598Z,2.20
2022-08-09T13:50:02.557Z,2.00
2022-08-09T13:52:32.475Z,2.00
2022-08-09T13:55:05.079Z,2.40
2022-08-09T13:57:39.556Z,2.00
2022-08-09T14:00:09.736Z,2.40
2022-08-09T14:02:42.821Z,2.10
2022-08-09T14:05:57.031Z,1.70
2022-08-09T14:08:20.846Z,2.00
2022-08-09T14:10:52.990Z,2.00
2022-08-09T14:14:16.198Z,2.30
2022-08-09T14:16:14.080Z,2.30
2022-08-09T14:18:45.942Z,2.30
2022-08-09T14:21:20.416Z,1.90
2022-08-09T14:23:54.017Z,2.30
2022-08-09T14:26:32.890Z,2.60
2022-08-09T14:29:03.076Z,2.00
2022-08-09T14:31:36.028Z,1.90
2022-08-09T14:34:31.068Z,2.30
2022-08-09T14:37:02.371Z,2.50
2022-08-09T14:39:45.917Z,2.30
2022-08-09T14:42:31.744Z,1.90
2022-08-09T14:46:45.915Z,2.00
2022-08-09T14:47:57.573Z,1.90
2022-08-09T14:50:30.444Z,2.00
2022-08-09T14:53:00.603Z,2.00
2022-08-09T14:55:32.763Z,2.50
2022-08-09T14:58:03.304Z,2.20
2022-08-09T15:00:33.489Z,2.20
2022-08-09T15:03:03.893Z,2.00
2022-08-09T15:05:33.723Z,2.40
2022-08-09T15:08:03.057Z,1.90
2022-08-09T15:10:32.937Z,1.90
2022-08-09T15:13:02.974Z,1.90
2022-08-09T15:15:34.350Z,2.30
2022-08-09T15:18:12.493Z,2.30
2022-08-09T15:21:57.307Z,2.00
2022-08-09T15:24:02.619Z,2.20
2022-08-09T15:26:31.181Z,2.30
2022-08-09T15:29:02.433Z,2.10
2022-08-09T15:31:41.712Z,2.10
2022-08-09T15:34:32.123Z,1.70
2022-08-09T15:37:04.310Z,1.90
2022-08-09T15:39:43.699Z,2.20
2022-08-09T15:42:22.792Z,2.10
2022-08-09T15:44:52.191Z,1.70
2022-08-09T15:47:22.691Z,2.20
2022-08-09T15:50:03.876Z,2.30
2022-08-09T15:52:35.544Z,2.20
2022-08-09T15:55:05.374Z,2.30
2022-08-09T15:57:44.548Z,1.90
2022-08-09T16:00:25.750Z,2.00
2022-08-09T16:02:56.664Z,2.30
2022-08-09T16:05:26.816Z,1.90
2022-08-09T16:08:30.770Z,2.50
2022-08-09T16:11:01.994Z,2.20
2022-08-09T16:14:04.192Z,2.30
2022-08-09T16:16:26.303Z,2.20
2022-08-09T16:18:58.004Z,2.00
2022-08-09T16:21:31.664Z,1.90
2022-08-09T16:24:05.105Z,2.10
2022-08-09T16:26:38.430Z,1.80
2022-08-09T16:29:12.265Z,2.20
2022-08-09T16:32:18.317Z,2.30
2022-08-09T16:34:55.743Z,2.20
2022-08-09T16:37:53.769Z,2.20
2022-08-09T16:40:10.141Z,1.70
2022-08-09T16:42:44.825Z,2.10
2022-08-09T16:45:14.958Z,2.20
2022-08-09T16:48:39.566Z,1.80
2022-08-09T16:50:38.133Z,1.80
2022-08-09T16:53:08.822Z,1.60
2022-08-09T16:55:57.881Z,1.60
2022-08-09T16:58:28.317Z,1.80
2022-08-09T17:01:05.377Z,1.70
2022-08-09T17:03:34.795Z,2.10
2022-08-09T17:06:28.378Z,1.70
2022-08-09T17:09:03.070Z,1.90
2022-08-09T17:11:43.108Z,1.70
2022-08-09T17:14:26.260Z,1.90
2022-08-09T17:16:59.783Z,2.10
2022-08-09T17:20:04.915Z,1.70
2022-08-09T17:22:28.637Z,2.00
2022-08-09T17:25:09.757Z,1.60
2022-08-09T17:27:49.527Z,1.90
2022-08-09T17:30:25.853Z,1.80
2022-08-09T17:32:57.536Z,1.70
2022-08-09T17:35:31.149Z,1.80
2022-08-09T17:38:12.905Z,1.80
2022-08-09T17:40:50.817Z,1.70
2022-08-09T17:43:34.103Z,1.70
2022-08-09T17:46:06.695Z,2.10
2022-08-09T17:48:39.379Z,1.80
2022-08-09T17:51:18.026Z,1.70
2022-08-09T17:53:52.450Z,2.10
2022-08-09T17:56:27.966Z,1.60
2022-08-09T17:58:57.863Z,1.90
2022-08-09T18:02:03.430Z,1.60
2022-08-09T18:04:16.630Z,2.10
2022-08-09T18:06:54.041Z,1.80
2022-08-09T18:09:41.071Z,1.70
2022-08-09T18:12:17.917Z,1.90
2022-08-09T18:14:54.480Z,2.30
2022-08-09T18:17:27.698Z,2.30
2022-08-09T18:20:55.739Z,1.90
2022-08-09T18:23:05.262Z,2.20
2022-08-09T18:25:52.903Z,2.00
2022-08-09T18:30:42.691Z,2.00
2022-08-09T18:31:13.196Z,2.20
2022-08-09T18:33:46.326Z,1.80
2022-08-09T18:36:25.779Z,1.90
2022-08-09T18:39:02.776Z,2.20
2022-08-09T18:41:34.680Z,1.90
2022-08-09T18:44:13.215Z,1.90
2022-08-09T18:46:47.767Z,2.00
2022-08-09T18:49:21.235Z,2.10
2022-08-09T18:51:55.211Z,2.20
2022-08-09T18:54:28.653Z,1.70
2022-08-09T18:57:05.163Z,1.90
2022-08-09T18:59:37.210Z,2.30
2022-08-09T19:02:14.903Z,2.70
2022-08-09T19:04:48.103Z,2.30
2022-08-09T19:07:33.266Z,1.80
2022-08-09T19:10:14.709Z,2.60
2022-08-09T19:13:04.663Z,2.10
2022-08-09T19:15:36.449Z,2.20
2022-08-09T19:18:05.662Z,2.50
2022-08-09T19:20:36.873Z,2.30
2022-08-09T19:23:08.852Z,3.20
2022-08-09T19:26:00.894Z,2.40
2022-08-09T19:31:01.808Z,2.60
2022-08-09T19:33:37.276Z,2.30
2022-08-09T19:36:07.161Z,2.20
2022-08-09T19:38:41.448Z,2.20
2022-08-09T19:41:12.363Z,2.20
2022-08-09T19:44:03.172Z,2.20
2022-08-09T19:46:35.700Z,2.60
2022-08-09T19:50:06.718Z,2.10
2022-08-09T19:52:12.313Z,2.50
2022-08-09T19:54:41.814Z,2.20
2022-08-09T19:57:11.593Z,2.20
2022-08-09T20:00:05.586Z,2.10
2022-08-09T20:04:23.874Z,2.60
2022-08-09T20:05:29.695Z,2.30
2022-08-09T20:10:56.394Z,2.70
2022-08-09T20:13:27.158Z,3.00
2022-08-09T20:16:34.929Z,3.30
2022-08-09T20:19:04.010Z,2.50
2022-08-09T20:21:54.801Z,2.80
2022-08-09T20:24:31.787Z,2.90
2022-08-09T20:27:08.473Z,3.30
2022-08-09T20:29:39.024Z,2.50
2022-08-09T20:32:28.879Z,2.60
2022-08-09T20:34:57.808Z,2.80
2022-08-09T20:38:18.756Z,2.50
2022-08-09T20:40:26.336Z,2.60
2022-08-09T20:43:12.086Z,3.10
2022-08-09T20:45:59.497Z,2.60
2022-08-09T20:48:32.120Z,2.90
2022-08-09T20:51:02.952Z,2.50
2022-08-09T20:53:37.094Z,2.90
2022-08-09T20:56:08.913Z,3.00
2022-08-09T20:58:38.635Z,2.60
2022-08-09T21:01:33.054Z,2.70
2022-08-09T21:05:53.797Z,3.30
2022-08-09T21:07:11.658Z,3.00
2022-08-09T21:09:55.248Z,2.70
2022-08-09T21:15:17.491Z,2.50
2022-08-09T21:18:25.379Z,2.90
2022-08-09T21:20:43.480Z,2.60
2022-08-09T21:25:56.327Z,3.10
2022-08-09T21:28:34.913Z,3.00
2022-08-09T21:31:18.146Z,3.30
2022-08-09T21:33:51.716Z,3.20
2022-08-09T21:36:23.102Z,3.30
2022-08-09T21:38:57.535Z,3.40
2022-08-09T21:42:05.526Z,3.40
2022-08-09T21:44:33.341Z,3.40
2022-08-09T21:47:04.981Z,3.50
2022-08-09T21:49:40.301Z,3.70
2022-08-09T21:52:15.011Z,3.60
2022-08-09T21:54:51.014Z,3.80
2022-08-09T21:57:39.513Z,3.90
2022-08-09T22:00:25.341Z,4.10
2022-08-09T22:02:58.487Z,4.20
2022-08-09T22:05:36.799Z,3.80
2022-08-09T22:08:06.510Z,4.40
2022-08-09T22:10:35.658Z,3.80
2022-08-09T22:13:24.980Z,4.60
2022-08-09T22:16:00.971Z,3.70
2022-08-09T22:18:33.228Z,3.60
2022-08-09T22:21:02.833Z,4.80
2022-08-09T22:23:59.548Z,3.40
2022-08-09T22:26:34.906Z,3.80
2022-08-09T22:29:09.522Z,3.50
2022-08-09T22:31:50.615Z,4.10
2022-08-09T22:34:26.891Z,3.90
2022-08-09T22:36:56.568Z,4.20
2022-08-09T22:39:57.198Z,3.80
2022-08-09T22:42:20.774Z,4.00
2022-08-09T22:48:04.505Z,3.80
2022-08-09T22:48:11.847Z,3.80
2022-08-09T22:50:31.178Z,4.80
2022-08-09T22:53:03.799Z,5.00
2022-08-09T22:56:06.243Z,4.30
2022-08-09T22:58:32.282Z,4.50
2022-08-09T23:01:03.580Z,5.00
2022-08-09T23:04:04.452Z,5.00
2022-08-09T23:06:34.820Z,5.00
2022-08-09T23:09:06.286Z,4.40
2022-08-09T23:11:35.745Z,4.90
2022-08-09T23:14:09.115Z,4.90
2022-08-09T23:16:39.894Z,4.50
2022-08-09T23:19:09.196Z,4.30
2022-08-09T23:21:38.643Z,4.90
2022-08-09T23:24:09.102Z,6.00
2022-08-09T23:26:38.367Z,5.30
2022-08-09T23:29:08.073Z,4.80
2022-08-09T23:31:37.424Z,5.50
2022-08-09T23:34:06.746Z,5.40
2022-08-09T23:36:36.591Z,4.90
2022-08-09T23:39:06.622Z,4.70
2022-08-09T23:41:36.311Z,4.40
2022-08-09T23:44:05.758Z,4.70
2022-08-09T23:46:35.208Z,4.40
2022-08-09T23:49:04.538Z,4.90
2022-08-09T23:51:33.977Z,4.50
2022-08-09T23:54:03.703Z,3.90
2022-08-09T23:56:52.691Z,4.50
2022-08-09T23:59:22.803Z,4.40
